Terminal Aerodrome Forecast
Issued by NWS Jackson, MS

Home | Current Version | Previous Version | Text Only | Print | Product List | Glossary On
Versions: 1 2 3 4 5 6 7 8 9 10 11 12 13 14 15 16 17 18
000
FTUS44 KMEG 011355 AAA
TAFTUP
TAF AMD
KTUP 011355Z 0114/0212 20011KT P6SM -RA BKN014 OVC080
     FM011500 20012G18KT 5SM -RA BR OVC013
     FM011700 21012G18KT 3SM -RA BR OVC005
     FM012000 22012G20KT 3SM RA BR OVC007
      TEMPO 0120/0123 TS OVC015CB
     FM020100 25012G18KT P6SM VCSH OVC015
     FM020600 32010KT P6SM OVC025=

USA.gov is the U.S. government's official web portal to all federal, state and local government web resources and services.